sensor_id;sensor_type;location;lat;lon;timestamp;temperature;humidity
65995;HTU21D;52764;51.036;5.852;2022-11-04T00:01:51;13.95;72.72
65995;HTU21D;52764;51.036;5.852;2022-11-04T00:04:19;13.88;72.76
65995;HTU21D;52764;51.036;5.852;2022-11-04T00:06:46;8.51;72.87
65995;HTU21D;52764;51.036;5.852;2022-11-04T00:09:26;13.69;73.14
65995;HTU21D;52764;51.036;5.852;2022-11-04T00:11:52;13.68;73.28
65995;HTU21D;52764;51.036;5.852;2022-11-04T00:14:37;13.54;74.54
65995;HTU21D;52764;51.036;5.852;2022-11-04T00:17:04;13.47;73.42
65995;HTU21D;52764;51.036;5.852;2022-11-04T00:19:51;13.43;73.81
65995;HTU21D;52764;51.036;5.852;2022-11-04T00:22:41;13.41;73.99
65995;HTU21D;52764;51.036;5.852;2022-11-04T00:25:25;13.49;74.27
65995;HTU21D;52764;51.036;5.852;2022-11-04T00:28:18;13.55;74.15
65995;HTU21D;52764;51.036;5.852;2022-11-04T00:31:05;13.58;73.94
65995;HTU21D;52764;51.036;5.852;2022-11-04T00:33:51;13.55;73.77
65995;HTU21D;52764;51.036;5.852;2022-11-04T00:36:18;13.51;73.76
65995;HTU21D;52764;51.036;5.852;2022-11-04T00:38:44;13.48;73.87
65995;HTU21D;52764;51.036;5.852;2022-11-04T00:41:10;13.43;73.83
65995;HTU21D;52764;51.036;5.852;2022-11-04T00:43:59;13.34;74.04
65995;HTU21D;52764;51.036;5.852;2022-11-04T00:46:27;13.30;74.15
65995;HTU21D;52764;51.036;5.852;2022-11-04T00:48:53;13.22;74.26
65995;HTU21D;52764;51.036;5.852;2022-11-04T00:51:19;13.12;74.44
65995;HTU21D;52764;51.036;5.852;2022-11-04T00:53:46;13.10;74.57
65995;HTU21D;52764;51.036;5.852;2022-11-04T00:56:12;13.04;74.70
65995;HTU21D;52764;51.036;5.852;2022-11-04T00:58:37;-15.02;74.74
65995;HTU21D;52764;51.036;5.852;2022-11-04T01:01:11;12.95;74.70
65995;HTU21D;52764;51.036;5.852;2022-11-04T01:03:37;12.88;74.92
65995;HTU21D;52764;51.036;5.852;2022-11-04T01:06:04;12.85;73.84
65995;HTU21D;52764;51.036;5.852;2022-11-04T01:08:30;12.80;74.91
65995;HTU21D;52764;51.036;5.852;2022-11-04T01:10:55;12.78;75.06
65995;HTU21D;52764;51.036;5.852;2022-11-04T01:13:21;12.81;74.83
65995;HTU21D;52764;51.036;5.852;2022-11-04T01:15:47;12.78;74.92
65995;HTU21D;52764;51.036;5.852;2022-11-04T01:18:12;12.76;74.95
65995;HTU21D;52764;51.036;5.852;2022-11-04T01:20:38;12.69;75.06
65995;HTU21D;52764;51.036;5.852;2022-11-04T01:23:04;-15.70;75.09
65995;HTU21D;52764;51.036;5.852;2022-11-04T01:25:29;12.61;75.21
65995;HTU21D;52764;51.036;5.852;2022-11-04T01:27:55;12.52;75.31
65995;HTU21D;52764;51.036;5.852;2022-11-04T01:30:21;12.55;75.36
65995;HTU21D;52764;51.036;5.852;2022-11-04T01:32:46;12.55;75.27
65995;HTU21D;52764;51.036;5.852;2022-11-04T01:35:12;12.52;75.32
65995;HTU21D;52764;51.036;5.852;2022-11-04T01:37:38;12.47;75.38
65995;HTU21D;52764;51.036;5.852;2022-11-04T01:40:04;12.46;75.43
65995;HTU21D;52764;51.036;5.852;2022-11-04T01:42:30;12.38;75.55
65995;HTU21D;52764;51.036;5.852;2022-11-04T01:44:57;12.37;75.61
65995;HTU21D;52764;51.036;5.852;2022-11-04T01:50:16;12.30;75.94
65995;HTU21D;52764;51.036;5.852;2022-11-04T01:52:51;2.91;76.02
65995;HTU21D;52764;51.036;5.852;2022-11-04T01:55:23;12.27;76.11
65995;HTU21D;52764;51.036;5.852;2022-11-04T01:57:55;12.21;76.15
65995;HTU21D;52764;51.036;5.852;2022-11-04T02:00:22;12.19;76.25
65995;HTU21D;52764;51.036;5.852;2022-11-04T02:02:58;12.19;76.21
65995;HTU21D;52764;51.036;5.852;2022-11-04T02:05:24;12.20;76.24
65995;HTU21D;52764;51.036;5.852;2022-11-04T02:07:54;12.18;76.31
65995;HTU21D;52764;51.036;5.852;2022-11-04T02:10:26;12.20;76.49
65995;HTU21D;52764;51.036;5.852;2022-11-04T02:12:53;12.18;76.49
65995;HTU21D;52764;51.036;5.852;2022-11-04T02:15:29;12.19;76.61
65995;HTU21D;52764;51.036;5.852;2022-11-04T02:18:20;12.26;64.79
65995;HTU21D;52764;51.036;5.852;2022-11-04T02:26:28;12.26;76.05
65995;HTU21D;52764;51.036;5.852;2022-11-04T02:31:52;12.23;76.16
65995;HTU21D;52764;51.036;5.852;2022-11-04T02:34:48;12.21;64.44
65995;HTU21D;52764;51.036;5.852;2022-11-04T02:40:07;12.12;76.24
65995;HTU21D;52764;51.036;5.852;2022-11-04T02:45:42;12.11;76.12
65995;HTU21D;52764;51.036;5.852;2022-11-04T02:51:30;12.07;75.83
65995;HTU21D;52764;51.036;5.852;2022-11-04T02:53:59;12.06;75.63
65995;HTU21D;52764;51.036;5.852;2022-11-04T02:56:30;12.05;75.63
65995;HTU21D;52764;51.036;5.852;2022-11-04T02:59:06;2.06;75.51
65995;HTU21D;52764;51.036;5.852;2022-11-04T03:01:40;10.51;75.63
65995;HTU21D;52764;51.036;5.852;2022-11-04T03:04:14;12.03;75.59
65995;HTU21D;52764;51.036;5.852;2022-11-04T03:06:47;12.01;75.61
65995;HTU21D;52764;51.036;5.852;2022-11-04T03:09:17;11.84;75.61
65995;HTU21D;52764;51.036;5.852;2022-11-04T03:11:49;12.02;75.58
65995;HTU21D;52764;51.036;5.852;2022-11-04T03:14:26;12.01;75.40
65995;HTU21D;52764;51.036;5.852;2022-11-04T03:16:58;11.97;75.54
65995;HTU21D;52764;51.036;5.852;2022-11-04T03:19:42;11.98;75.50
65995;HTU21D;52764;51.036;5.852;2022-11-04T03:22:14;11.92;75.54
65995;HTU21D;52764;51.036;5.852;2022-11-04T03:24:42;11.90;75.54
65995;HTU21D;52764;51.036;5.852;2022-11-04T03:30:17;11.91;75.59
65995;HTU21D;52764;51.036;5.852;2022-11-04T03:35:22;11.81;76.03
65995;HTU21D;52764;51.036;5.852;2022-11-04T03:37:48;11.76;76.19
65995;HTU21D;52764;51.036;5.852;2022-11-04T03:40:16;11.76;76.53
65995;HTU21D;52764;51.036;5.852;2022-11-04T03:42:49;11.78;76.20
65995;HTU21D;52764;51.036;5.852;2022-11-04T03:45:17;11.79;75.89
65995;HTU21D;52764;51.036;5.852;2022-11-04T03:47:43;9.26;75.67
65995;HTU21D;52764;51.036;5.852;2022-11-04T03:50:21;11.39;75.68
65995;HTU21D;52764;51.036;5.852;2022-11-04T03:52:48;10.01;75.60
65995;HTU21D;52764;51.036;5.852;2022-11-04T03:55:15;11.76;75.60
65995;HTU21D;52764;51.036;5.852;2022-11-04T03:57:57;11.78;75.46
65995;HTU21D;52764;51.036;5.852;2022-11-04T04:00:38;11.78;75.40
65995;HTU21D;52764;51.036;5.852;2022-11-04T04:03:41;11.77;75.27
65995;HTU21D;52764;51.036;5.852;2022-11-04T04:06:15;11.76;75.31
65995;HTU21D;52764;51.036;5.852;2022-11-04T04:09:01;-17.46;75.28
65995;HTU21D;52764;51.036;5.852;2022-11-04T04:11:54;11.77;75.18
65995;HTU21D;52764;51.036;5.852;2022-11-04T04:14:42;11.72;75.35
65995;HTU21D;52764;51.036;5.852;2022-11-04T04:17:37;11.66;75.58
65995;HTU21D;52764;51.036;5.852;2022-11-04T04:20:09;11.64;75.78
65995;HTU21D;52764;51.036;5.852;2022-11-04T04:22:43;11.66;75.77
65995;HTU21D;52764;51.036;5.852;2022-11-04T04:25:12;11.67;75.77
65995;HTU21D;52764;51.036;5.852;2022-11-04T04:28:00;11.70;79.01
65995;HTU21D;52764;51.036;5.852;2022-11-04T04:30:26;11.22;78.83
65995;HTU21D;52764;51.036;5.852;2022-11-04T04:33:04;9.89;75.35
65995;HTU21D;52764;51.036;5.852;2022-11-04T04:35:39;11.74;75.22
65995;HTU21D;52764;51.036;5.852;2022-11-04T04:38:24;11.74;75.23
65995;HTU21D;52764;51.036;5.852;2022-11-04T04:41:17;11.74;75.28
65995;HTU21D;52764;51.036;5.852;2022-11-04T04:44:08;11.74;75.23
65995;HTU21D;52764;51.036;5.852;2022-11-04T04:47:16;11.75;75.16
65995;HTU21D;52764;51.036;5.852;2022-11-04T04:49:58;11.70;75.19
65995;HTU21D;52764;51.036;5.852;2022-11-04T04:52:31;11.62;75.41
65995;HTU21D;52764;51.036;5.852;2022-11-04T04:54:58;10.89;79.09
65995;HTU21D;52764;51.036;5.852;2022-11-04T04:57:23;11.52;75.88
65995;HTU21D;52764;51.036;5.852;2022-11-04T04:59:49;-18.04;76.05
65995;HTU21D;52764;51.036;5.852;2022-11-04T05:02:15;-18.00;75.89
65995;HTU21D;52764;51.036;5.852;2022-11-04T05:04:41;11.53;75.96
65995;HTU21D;52764;51.036;5.852;2022-11-04T05:07:06;11.56;71.62
65995;HTU21D;52764;51.036;5.852;2022-11-04T05:09:34;11.62;75.80
65995;HTU21D;52764;51.036;5.852;2022-11-04T05:12:00;9.52;75.73
65995;HTU21D;52764;51.036;5.852;2022-11-04T05:14:26;11.53;75.70
65995;HTU21D;52764;51.036;5.852;2022-11-04T05:16:52;11.47;75.91
65995;HTU21D;52764;51.036;5.852;2022-11-04T05:19:23;11.43;76.08
65995;HTU21D;52764;51.036;5.852;2022-11-04T05:21:49;11.44;76.24
65995;HTU21D;52764;51.036;5.852;2022-11-04T05:24:15;-33.34;76.29
65995;HTU21D;52764;51.036;5.852;2022-11-04T05:26:40;11.48;76.18
65995;HTU21D;52764;51.036;5.852;2022-11-04T05:29:08;11.51;76.06
65995;HTU21D;52764;51.036;5.852;2022-11-04T05:31:34;9.44;76.01
65995;HTU21D;52764;51.036;5.852;2022-11-04T05:33:59;11.52;75.93
65995;HTU21D;52764;51.036;5.852;2022-11-04T05:36:25;11.53;75.92
65995;HTU21D;52764;51.036;5.852;2022-11-04T05:38:52;11.49;75.70
65995;HTU21D;52764;51.036;5.852;2022-11-04T05:41:20;11.54;75.91
65995;HTU21D;52764;51.036;5.852;2022-11-04T05:43:54;11.07;75.96
65995;HTU21D;52764;51.036;5.852;2022-11-04T05:46:21;11.72;75.84
65995;HTU21D;52764;51.036;5.852;2022-11-04T05:48:47;11.79;75.47
65995;HTU21D;52764;51.036;5.852;2022-11-04T05:51:15;9.70;75.31
65995;HTU21D;52764;51.036;5.852;2022-11-04T05:53:41;11.93;75.09
65995;HTU21D;52764;51.036;5.852;2022-11-04T05:56:07;11.98;75.04
65995;HTU21D;52764;51.036;5.852;2022-11-04T05:58:33;12.04;74.83
65995;HTU21D;52764;51.036;5.852;2022-11-04T06:03:52;12.22;74.45
65995;HTU21D;52764;51.036;5.852;2022-11-04T06:06:19;12.29;76.39
65995;HTU21D;52764;51.036;5.852;2022-11-04T06:08:45;12.32;74.15
65995;HTU21D;52764;51.036;5.852;2022-11-04T06:11:11;3.30;74.01
65995;HTU21D;52764;51.036;5.852;2022-11-04T06:13:36;12.40;73.80
65995;HTU21D;52764;51.036;5.852;2022-11-04T06:16:02;12.40;73.84
65995;HTU21D;52764;51.036;5.852;2022-11-04T06:18:28;12.46;73.86
65995;HTU21D;52764;51.036;5.852;2022-11-04T06:21:27;12.51;73.73
65995;HTU21D;52764;51.036;5.852;2022-11-04T06:23:55;12.55;73.57
65995;HTU21D;52764;51.036;5.852;2022-11-04T06:26:25;12.61;73.33
65995;HTU21D;52764;51.036;5.852;2022-11-04T06:28:51;11.62;73.40
65995;HTU21D;52764;51.036;5.852;2022-11-04T06:31:17;12.61;73.34
65995;HTU21D;52764;51.036;5.852;2022-11-04T06:33:44;12.62;73.10
65995;HTU21D;52764;51.036;5.852;2022-11-04T06:36:13;12.61;72.98
65995;HTU21D;52764;51.036;5.852;2022-11-04T06:38:39;4.29;73.14
65995;HTU21D;52764;51.036;5.852;2022-11-04T06:41:07;-15.73;72.81
65995;HTU21D;52764;51.036;5.852;2022-11-04T06:43:35;12.67;73.08
65995;HTU21D;52764;51.036;5.852;2022-11-04T06:46:01;12.71;72.97
65995;HTU21D;52764;51.036;5.852;2022-11-04T06:48:29;12.71;72.88
65995;HTU21D;52764;51.036;5.852;2022-11-04T06:50:56;12.74;72.83
65995;HTU21D;52764;51.036;5.852;2022-11-04T06:53:23;12.76;72.80
65995;HTU21D;52764;51.036;5.852;2022-11-04T06:55:50;6.50;72.91
65995;HTU21D;52764;51.036;5.852;2022-11-04T06:58:16;6.52;72.90
65995;HTU21D;52764;51.036;5.852;2022-11-04T07:00:41;12.81;72.90
65995;HTU21D;52764;51.036;5.852;2022-11-04T07:03:08;12.84;72.91
65995;HTU21D;52764;51.036;5.852;2022-11-04T07:05:34;12.86;61.78
65995;HTU21D;52764;51.036;5.852;2022-11-04T07:08:00;12.91;72.73
65995;HTU21D;52764;51.036;5.852;2022-11-04T07:10:25;12.97;72.71
65995;HTU21D;52764;51.036;5.852;2022-11-04T07:12:51;13.02;57.72
65995;HTU21D;52764;51.036;5.852;2022-11-04T07:15:19;13.07;72.79
65995;HTU21D;52764;51.036;5.852;2022-11-04T07:17:44;13.11;72.32
65995;HTU21D;52764;51.036;5.852;2022-11-04T07:20:10;13.09;72.03
65995;HTU21D;52764;51.036;5.852;2022-11-04T07:22:38;13.08;72.13
65995;HTU21D;52764;51.036;5.852;2022-11-04T07:25:04;13.05;72.08
65995;HTU21D;52764;51.036;5.852;2022-11-04T07:27:30;12.46;72.29
65995;HTU21D;52764;51.036;5.852;2022-11-04T07:29:56;13.04;72.21
65995;HTU21D;52764;51.036;5.852;2022-11-04T07:32:22;13.05;72.10
65995;HTU21D;52764;51.036;5.852;2022-11-04T07:34:47;13.02;72.09
65995;HTU21D;52764;51.036;5.852;2022-11-04T07:37:13;13.03;72.45
65995;HTU21D;52764;51.036;5.852;2022-11-04T07:39:39;13.05;72.41
65995;HTU21D;52764;51.036;5.852;2022-11-04T07:42:06;13.10;72.23
65995;HTU21D;52764;51.036;5.852;2022-11-04T07:44:33;13.19;71.99
65995;HTU21D;52764;51.036;5.852;2022-11-04T07:46:58;13.29;71.72
65995;HTU21D;52764;51.036;5.852;2022-11-04T07:49:24;13.00;70.96
65995;HTU21D;52764;51.036;5.852;2022-11-04T07:51:50;13.21;71.72
65995;HTU21D;52764;51.036;5.852;2022-11-04T07:54:16;13.21;71.70
65995;HTU21D;52764;51.036;5.852;2022-11-04T07:56:42;13.11;71.91
65995;HTU21D;52764;51.036;5.852;2022-11-04T07:59:07;13.12;72.31
65995;HTU21D;52764;51.036;5.852;2022-11-04T08:01:33;13.20;72.07
65995;HTU21D;52764;51.036;5.852;2022-11-04T08:03:59;13.29;72.19
65995;HTU21D;52764;51.036;5.852;2022-11-04T08:06:25;13.08;72.01
65995;HTU21D;52764;51.036;5.852;2022-11-04T08:08:51;13.21;72.26
65995;HTU21D;52764;51.036;5.852;2022-11-04T08:11:21;7.68;72.44
65995;HTU21D;52764;51.036;5.852;2022-11-04T08:13:49;13.40;72.23
65995;HTU21D;52764;51.036;5.852;2022-11-04T08:16:18;13.37;72.64
65995;HTU21D;52764;51.036;5.852;2022-11-04T08:18:45;13.30;72.99
65995;HTU21D;52764;51.036;5.852;2022-11-04T08:21:11;13.23;73.22
65995;HTU21D;52764;51.036;5.852;2022-11-04T08:23:37;13.23;73.47
65995;HTU21D;52764;51.036;5.852;2022-11-04T08:26:10;13.29;73.49
65995;HTU21D;52764;51.036;5.852;2022-11-04T08:28:37;13.35;73.56
65995;HTU21D;52764;51.036;5.852;2022-11-04T08:31:13;13.49;73.44
65995;HTU21D;52764;51.036;5.852;2022-11-04T08:33:39;13.67;73.04
65995;HTU21D;52764;51.036;5.852;2022-11-04T08:36:27;13.77;72.40
65995;HTU21D;52764;51.036;5.852;2022-11-04T08:38:53;14.67;72.25
65995;HTU21D;52764;51.036;5.852;2022-11-04T08:41:23;13.95;72.17
65995;HTU21D;52764;51.036;5.852;2022-11-04T08:43:50;14.06;71.99
65995;HTU21D;52764;51.036;5.852;2022-11-04T08:46:16;14.14;71.27
65995;HTU21D;52764;51.036;5.852;2022-11-04T08:48:43;14.84;85.45
65995;HTU21D;52764;51.036;5.852;2022-11-04T08:51:36;14.93;70.92
65995;HTU21D;52764;51.036;5.852;2022-11-04T08:54:03;14.47;70.50
65995;HTU21D;52764;51.036;5.852;2022-11-04T08:56:32;14.55;69.79
65995;HTU21D;52764;51.036;5.852;2022-11-04T08:59:00;14.58;68.58
65995;HTU21D;52764;51.036;5.852;2022-11-04T09:01:28;14.57;69.36
65995;HTU21D;52764;51.036;5.852;2022-11-04T09:03:54;14.22;69.20
65995;HTU21D;52764;51.036;5.852;2022-11-04T09:06:25;14.57;81.88
65995;HTU21D;52764;51.036;5.852;2022-11-04T09:08:51;14.65;69.31
65995;HTU21D;52764;51.036;5.852;2022-11-04T09:11:20;14.62;69.12
65995;HTU21D;52764;51.036;5.852;2022-11-04T09:13:46;14.71;69.05
65995;HTU21D;52764;51.036;5.852;2022-11-04T09:16:13;14.70;69.11
65995;HTU21D;52764;51.036;5.852;2022-11-04T09:18:39;14.70;69.04
65995;HTU21D;52764;51.036;5.852;2022-11-04T09:21:07;14.75;69.37
65995;HTU21D;52764;51.036;5.852;2022-11-04T09:23:33;14.83;69.23
65995;HTU21D;52764;51.036;5.852;2022-11-04T09:26:12;14.91;66.11
65995;HTU21D;52764;51.036;5.852;2022-11-04T09:28:38;13.81;69.04
65995;HTU21D;52764;51.036;5.852;2022-11-04T09:31:12;15.08;69.16
65995;HTU21D;52764;51.036;5.852;2022-11-04T09:33:38;15.16;68.63
65995;HTU21D;52764;51.036;5.852;2022-11-04T09:36:04;14.15;68.39
65995;HTU21D;52764;51.036;5.852;2022-11-04T09:38:30;15.30;79.95
65995;HTU21D;52764;51.036;5.852;2022-11-04T09:40:58;15.34;67.97
65995;HTU21D;52764;51.036;5.852;2022-11-04T09:43:51;11.58;67.96
65995;HTU21D;52764;51.036;5.852;2022-11-04T09:46:21;15.24;68.11
65995;HTU21D;52764;51.036;5.852;2022-11-04T09:48:53;15.19;68.23
65995;HTU21D;52764;51.036;5.852;2022-11-04T09:51:23;15.19;68.01
65995;HTU21D;52764;51.036;5.852;2022-11-04T09:53:54;15.14;68.32
65995;HTU21D;52764;51.036;5.852;2022-11-04T09:56:36;15.13;68.51
65995;HTU21D;52764;51.036;5.852;2022-11-04T09:59:04;15.14;68.62
65995;HTU21D;52764;51.036;5.852;2022-11-04T10:01:37;15.12;80.62
65995;HTU21D;52764;51.036;5.852;2022-11-04T10:04:23;15.12;68.68
65995;HTU21D;52764;51.036;5.852;2022-11-04T10:12:13;15.03;68.58
65995;HTU21D;52764;51.036;5.852;2022-11-04T10:19:59;15.01;68.93
65995;HTU21D;52764;51.036;5.852;2022-11-04T10:22:58;15.00;68.85
65995;HTU21D;52764;51.036;5.852;2022-11-04T10:25:52;14.96;66.41
65995;HTU21D;52764;51.036;5.852;2022-11-04T10:28:39;14.92;69.55
65995;HTU21D;52764;51.036;5.852;2022-11-04T10:31:13;14.93;69.71
65995;HTU21D;52764;51.036;5.852;2022-11-04T10:33:48;14.95;69.72
65995;HTU21D;52764;51.036;5.852;2022-11-04T10:36:17;14.99;69.71
65995;HTU21D;52764;51.036;5.852;2022-11-04T10:38:50;15.04;66.28
65995;HTU21D;52764;51.036;5.852;2022-11-04T10:43:51;15.06;69.36
65995;HTU21D;52764;51.036;5.852;2022-11-04T10:52:12;15.13;69.30
65995;HTU21D;52764;51.036;5.852;2022-11-04T10:54:45;-10.59;69.26
65995;HTU21D;52764;51.036;5.852;2022-11-04T10:57:16;15.33;69.03
65995;HTU21D;52764;51.036;5.852;2022-11-04T10:59:56;15.43;68.49
65995;HTU21D;52764;51.036;5.852;2022-11-04T11:02:43;15.55;67.81
65995;HTU21D;52764;51.036;5.852;2022-11-04T11:05:19;15.63;67.63
65995;HTU21D;52764;51.036;5.852;2022-11-04T11:07:48;15.76;67.43
65995;HTU21D;52764;51.036;5.852;2022-11-04T11:10:23;15.83;66.94
65995;HTU21D;52764;51.036;5.852;2022-11-04T11:15:35;15.70;66.75
65995;HTU21D;52764;51.036;5.852;2022-11-04T11:20:34;15.98;66.24
65995;HTU21D;52764;51.036;5.852;2022-11-04T11:23:03;15.88;66.10
65995;HTU21D;52764;51.036;5.852;2022-11-04T11:25:42;15.70;65.98
65995;HTU21D;52764;51.036;5.852;2022-11-04T11:28:22;14.80;66.56
65995;HTU21D;52764;51.036;5.852;2022-11-04T11:31:01;11.77;67.31
65995;HTU21D;52764;51.036;5.852;2022-11-04T11:33:44;15.32;67.83
65995;HTU21D;52764;51.036;5.852;2022-11-04T11:36:30;15.16;67.53
65995;HTU21D;52764;51.036;5.852;2022-11-04T11:44:47;14.92;70.05
65995;HTU21D;52764;51.036;5.852;2022-11-04T11:47:34;15.11;70.21
65995;HTU21D;52764;51.036;5.852;2022-11-04T11:52:32;15.34;69.46
65995;HTU21D;52764;51.036;5.852;2022-11-04T11:55:22;15.38;68.91
65995;HTU21D;52764;51.036;5.852;2022-11-04T12:00:31;15.27;64.67
65995;HTU21D;52764;51.036;5.852;2022-11-04T12:03:07;15.07;68.91
65995;HTU21D;52764;51.036;5.852;2022-11-04T12:05:46;15.02;69.31
65995;HTU21D;52764;51.036;5.852;2022-11-04T12:13:54;14.99;69.78
65995;HTU21D;52764;51.036;5.852;2022-11-04T12:16:35;-11.22;70.39
65995;HTU21D;52764;51.036;5.852;2022-11-04T12:28:21;15.04;70.08
65995;HTU21D;52764;51.036;5.852;2022-11-04T12:33:48;15.23;69.68
65995;HTU21D;52764;51.036;5.852;2022-11-04T12:36:52;15.30;68.68
65995;HTU21D;52764;51.036;5.852;2022-11-04T12:39:34;15.44;68.23
65995;HTU21D;52764;51.036;5.852;2022-11-04T12:47:42;15.23;67.99
65995;HTU21D;52764;51.036;5.852;2022-11-04T12:50:41;15.81;67.72
65995;HTU21D;52764;51.036;5.852;2022-11-04T12:55:58;15.84;67.44
65995;HTU21D;52764;51.036;5.852;2022-11-04T13:01:24;15.77;67.39
65995;HTU21D;52764;51.036;5.852;2022-11-04T13:04:12;15.75;67.34
65995;HTU21D;52764;51.036;5.852;2022-11-04T13:09:29;15.66;68.46
65995;HTU21D;52764;51.036;5.852;2022-11-04T13:14:46;15.67;68.21
65995;HTU21D;52764;51.036;5.852;2022-11-04T13:17:17;15.61;68.44
65995;HTU21D;52764;51.036;5.852;2022-11-04T13:19:53;15.56;68.77
65995;HTU21D;52764;51.036;5.852;2022-11-04T13:22:26;15.57;68.68
65995;HTU21D;52764;51.036;5.852;2022-11-04T13:25:16;15.52;68.78
65995;HTU21D;52764;51.036;5.852;2022-11-04T13:27:46;11.92;68.49
65995;HTU21D;52764;51.036;5.852;2022-11-04T13:36:25;15.37;68.98
65995;HTU21D;52764;51.036;5.852;2022-11-04T13:39:07;15.29;69.16
65995;HTU21D;52764;51.036;5.852;2022-11-04T13:44:25;15.18;69.47
65995;HTU21D;52764;51.036;5.852;2022-11-04T13:46:59;15.12;69.81
65995;HTU21D;52764;51.036;5.852;2022-11-04T13:49:29;15.14;83.70
65995;HTU21D;52764;51.036;5.852;2022-11-04T13:52:10;15.18;70.23
65995;HTU21D;52764;51.036;5.852;2022-11-04T13:54:40;15.19;70.41
65995;HTU21D;52764;51.036;5.852;2022-11-04T13:57:15;14.15;69.85
65995;HTU21D;52764;51.036;5.852;2022-11-04T14:00:07;15.19;69.55
65995;HTU21D;52764;51.036;5.852;2022-11-04T14:18:47;14.94;70.13
65995;HTU21D;52764;51.036;5.852;2022-11-04T14:21:15;14.93;70.13
65995;HTU21D;52764;51.036;5.852;2022-11-04T14:23:52;14.89;70.45
65995;HTU21D;52764;51.036;5.852;2022-11-04T14:26:23;16.21;70.55
65995;HTU21D;52764;51.036;5.852;2022-11-04T14:29:02;14.85;69.09
65995;HTU21D;52764;51.036;5.852;2022-11-04T14:31:36;14.84;70.67
65995;HTU21D;52764;51.036;5.852;2022-11-04T14:34:04;14.81;70.59
65995;HTU21D;52764;51.036;5.852;2022-11-04T14:36:39;10.44;71.04
65995;HTU21D;52764;51.036;5.852;2022-11-04T14:39:07;14.75;71.23
65995;HTU21D;52764;51.036;5.852;2022-11-04T14:44:36;14.75;70.47
65995;HTU21D;52764;51.036;5.852;2022-11-04T14:47:17;14.79;70.48
65995;HTU21D;52764;51.036;5.852;2022-11-04T14:49:52;14.63;70.44
65995;HTU21D;52764;51.036;5.852;2022-11-04T14:55:13;14.88;69.98
65995;HTU21D;52764;51.036;5.852;2022-11-04T14:57:49;14.84;70.17
65995;HTU21D;52764;51.036;5.852;2022-11-04T15:00:34;14.82;70.55
65995;HTU21D;52764;51.036;5.852;2022-11-04T15:05:38;14.81;69.83
65995;HTU21D;52764;51.036;5.852;2022-11-04T15:08:27;14.78;70.01
65995;HTU21D;52764;51.036;5.852;2022-11-04T15:13:44;14.78;70.16
65995;HTU21D;52764;51.036;5.852;2022-11-04T15:16:16;14.75;70.14
65995;HTU21D;52764;51.036;5.852;2022-11-04T15:18:44;14.77;70.32
65995;HTU21D;52764;51.036;5.852;2022-11-04T15:21:10;14.82;70.40
65995;HTU21D;52764;51.036;5.852;2022-11-04T15:23:51;14.83;70.42
65995;HTU21D;52764;51.036;5.852;2022-11-04T15:26:27;14.83;70.39
65995;HTU21D;52764;51.036;5.852;2022-11-04T15:28:55;14.82;70.56
65995;HTU21D;52764;51.036;5.852;2022-11-04T15:31:31;14.67;70.45
65995;HTU21D;52764;51.036;5.852;2022-11-04T15:34:00;14.82;70.25
65995;HTU21D;52764;51.036;5.852;2022-11-04T15:36:38;14.80;70.03
65995;HTU21D;52764;51.036;5.852;2022-11-04T15:39:20;14.75;70.45
65995;HTU21D;52764;51.036;5.852;2022-11-04T15:41:48;10.38;70.75
65995;HTU21D;52764;51.036;5.852;2022-11-04T15:44:36;14.68;71.03
65995;HTU21D;52764;51.036;5.852;2022-11-04T15:47:26;-11.71;71.29
65995;HTU21D;52764;51.036;5.852;2022-11-04T15:50:01;14.65;71.80
65995;HTU21D;52764;51.036;5.852;2022-11-04T15:52:28;14.68;72.09
65995;HTU21D;52764;51.036;5.852;2022-11-04T15:54:56;14.78;72.13
65995;HTU21D;52764;51.036;5.852;2022-11-04T15:57:39;14.83;71.96
65995;HTU21D;52764;51.036;5.852;2022-11-04T16:02:50;14.84;71.95
65995;HTU21D;52764;51.036;5.852;2022-11-04T16:05:27;14.92;71.66
65995;HTU21D;52764;51.036;5.852;2022-11-04T16:07:55;14.93;71.45
65995;HTU21D;52764;51.036;5.852;2022-11-04T16:10:38;14.95;71.27
65995;HTU21D;52764;51.036;5.852;2022-11-04T16:15:47;15.01;71.20
65995;HTU21D;52764;51.036;5.852;2022-11-04T16:21:12;14.98;71.01
65995;HTU21D;52764;51.036;5.852;2022-11-04T16:23:45;14.97;71.03
65995;HTU21D;52764;51.036;5.852;2022-11-04T16:26:12;14.95;71.02
65995;HTU21D;52764;51.036;5.852;2022-11-04T16:28:40;14.94;70.97
65995;HTU21D;52764;51.036;5.852;2022-11-04T16:31:22;14.93;70.84
65995;HTU21D;52764;51.036;5.852;2022-11-04T16:33:49;14.86;70.93
65995;HTU21D;52764;51.036;5.852;2022-11-04T16:36:16;10.62;71.13
65995;HTU21D;52764;51.036;5.852;2022-11-04T16:39:00;14.78;71.57
65995;HTU21D;52764;51.036;5.852;2022-11-04T16:41:37;15.93;71.77
65995;HTU21D;52764;51.036;5.852;2022-11-04T16:44:04;14.73;71.58
65995;HTU21D;52764;51.036;5.852;2022-11-04T16:46:34;14.45;71.03
65995;HTU21D;52764;51.036;5.852;2022-11-04T16:48:59;14.63;70.97
65995;HTU21D;52764;51.036;5.852;2022-11-04T16:51:25;14.52;71.14
65995;HTU21D;52764;51.036;5.852;2022-11-04T16:53:52;14.38;72.03
65995;HTU21D;52764;51.036;5.852;2022-11-04T16:56:23;14.26;73.17
65995;HTU21D;52764;51.036;5.852;2022-11-04T16:58:50;14.15;73.46
65995;HTU21D;52764;51.036;5.852;2022-11-04T17:01:16;14.03;73.79
65995;HTU21D;52764;51.036;5.852;2022-11-04T17:03:44;14.20;74.32
65995;HTU21D;52764;51.036;5.852;2022-11-04T17:06:12;13.70;74.98
65995;HTU21D;52764;51.036;5.852;2022-11-04T17:08:39;13.58;75.54
65995;HTU21D;52764;51.036;5.852;2022-11-04T17:11:06;13.50;75.95
65995;HTU21D;52764;51.036;5.852;2022-11-04T17:13:32;13.47;76.50
65995;HTU21D;52764;51.036;5.852;2022-11-04T17:15:58;13.44;76.44
65995;HTU21D;52764;51.036;5.852;2022-11-04T17:18:23;13.36;76.83
65995;HTU21D;52764;51.036;5.852;2022-11-04T17:20:56;13.35;76.92
65995;HTU21D;52764;51.036;5.852;2022-11-04T17:23:23;13.33;77.07
65995;HTU21D;52764;51.036;5.852;2022-11-04T17:25:50;13.31;77.18
65995;HTU21D;52764;51.036;5.852;2022-11-04T17:28:15;13.29;77.15
65995;HTU21D;52764;51.036;5.852;2022-11-04T17:30:42;13.27;76.47
65995;HTU21D;52764;51.036;5.852;2022-11-04T17:33:18;13.27;77.20
65995;HTU21D;52764;51.036;5.852;2022-11-04T17:35:46;13.26;77.18
65995;HTU21D;52764;51.036;5.852;2022-11-04T17:38:14;-14.58;77.26
65995;HTU21D;52764;51.036;5.852;2022-11-04T17:40:40;13.26;77.35
65995;HTU21D;52764;51.036;5.852;2022-11-04T17:43:25;13.24;77.21
65995;HTU21D;52764;51.036;5.852;2022-11-04T17:46:10;13.19;77.21
65995;HTU21D;52764;51.036;5.852;2022-11-04T17:48:55;7.25;77.31
65995;HTU21D;52764;51.036;5.852;2022-11-04T17:51:21;13.10;77.34
65995;HTU21D;52764;51.036;5.852;2022-11-04T17:53:47;13.06;77.52
65995;HTU21D;52764;51.036;5.852;2022-11-04T17:56:15;13.05;77.67
65995;HTU21D;52764;51.036;5.852;2022-11-04T17:58:40;12.59;67.92
65995;HTU21D;52764;51.036;5.852;2022-11-04T18:01:07;13.15;77.79
65995;HTU21D;52764;51.036;5.852;2022-11-04T18:03:33;13.21;77.71
65995;HTU21D;52764;51.036;5.852;2022-11-04T18:06:00;13.22;77.15
65995;HTU21D;52764;51.036;5.852;2022-11-04T18:08:26;13.21;77.16